Time;durP1;ratioP1;P1;durP2;ratioP2;P2;SDS_P1;SDS_P2;PMS_P1;PMS_P2;Temp;Humidity;BMP_temperature;BMP_pressure;BME280_temperature;BME280_humidity;BME280_pressure;Samples;Min_cycle;Max_cycle;Signal;HPM_P1;HPM_P2
2024/02/01 00:00:36;;;;;;;6.93;3.30;;;;;;;-141.50;100.00;63355.56;5110687;28;20174;-79
2024/02/01 00:03:03;;;;;;;6.82;3.63;;;;;;;-141.50;100.00;63355.56;5113215;28;20077;-78
2024/02/01 00:05:30;;;;;;;8.43;3.78;;;;;;;-141.50;100.00;63355.56;5090933;28;20047;-79
2024/02/01 00:07:57;;;;;;;5.88;3.25;;;;;;;-141.50;100.00;63355.56;5109254;28;20126;-80
2024/02/01 00:10:24;;;;;;;8.02;3.60;;;;;;;-141.50;100.00;63355.56;5089596;28;20052;-79
2024/02/01 00:12:50;;;;;;;7.68;3.38;;;;;;;-141.50;100.00;63355.56;5091542;28;20054;-79
2024/02/01 00:15:17;;;;;;;7.47;2.95;;;;;;;-141.50;100.00;63355.56;5087975;28;20063;-79
2024/02/01 00:17:44;;;;;;;6.15;3.30;;;;;;;-141.50;100.00;63355.56;5092797;28;20112;-79
2024/02/01 00:20:11;;;;;;;7.20;3.20;;;;;;;-141.50;100.00;63355.56;5095019;28;20104;-79
2024/02/01 00:22:37;;;;;;;6.35;3.35;;;;;;;-141.50;100.00;63355.56;5126294;28;20127;-78
2024/02/01 00:25:05;;;;;;;7.20;3.50;;;;;;;-141.50;100.00;63355.56;5108369;28;20055;-80
2024/02/01 00:27:31;;;;;;;9.27;3.75;;;;;;;-141.50;100.00;63355.56;5105206;28;20043;-80
2024/02/01 00:30:00;;;;;;;7.35;3.80;;;;;;;-141.50;100.00;63355.56;5125829;28;20060;-81
2024/02/01 00:32:26;;;;;;;6.72;3.60;;;;;;;-141.50;100.00;63355.56;5126961;28;20044;-79
2024/02/01 00:34:53;;;;;;;6.68;3.50;;;;;;;-141.50;100.00;63355.56;5111240;28;20131;-78
2024/02/01 00:37:20;;;;;;;8.90;3.83;;;;;;;-141.50;100.00;63355.56;5109980;28;20113;-77
2024/02/01 00:39:47;;;;;;;5.90;3.33;;;;;;;-141.50;100.00;63355.56;5107203;28;20127;-78
2024/02/01 00:42:13;;;;;;;9.48;3.70;;;;;;;-141.50;100.00;63355.56;5118404;28;20506;-79
2024/02/01 00:44:40;;;;;;;9.88;3.45;;;;;;;-141.50;100.00;63355.56;5096777;28;20056;-79
2024/02/01 00:47:07;;;;;;;6.80;3.63;;;;;;;-141.50;100.00;63355.56;5110474;28;20151;-79
2024/02/01 00:49:34;;;;;;;6.65;3.20;;;;;;;-141.50;100.00;63355.56;5090893;28;20044;-79
2024/02/01 00:52:02;;;;;;;8.35;3.20;;;;;;;-141.50;100.00;63355.56;5092440;28;20095;-80
2024/02/01 00:54:30;;;;;;;7.30;3.33;;;;;;;-141.50;100.00;63355.56;5107794;28;20051;-80
2024/02/01 00:56:57;;;;;;;7.72;3.05;;;;;;;-141.50;100.00;63355.56;5087804;27;20056;-81
2024/02/01 00:59:24;;;;;;;8.77;3.40;;;;;;;-141.50;100.00;63355.56;5107882;28;20055;-80
2024/02/01 01:01:50;;;;;;;7.40;3.35;;;;;;;-141.50;100.00;63355.56;5118624;28;20074;-80
2024/02/01 01:04:17;;;;;;;8.60;3.40;;;;;;;-141.50;100.00;63355.56;5109116;28;20043;-80
2024/02/01 01:06:44;;;;;;;6.40;3.20;;;;;;;-141.50;100.00;63355.56;5110465;28;20112;-79
2024/02/01 01:09:11;;;;;;;9.30;3.22;;;;;;;-141.50;100.00;63355.56;5091497;28;20055;-79
2024/02/01 01:11:38;;;;;;;8.48;3.67;;;;;;;-141.50;100.00;63355.56;5071406;28;20066;-80
2024/02/01 01:14:05;;;;;;;6.25;3.28;;;;;;;-141.50;100.00;63355.56;5112412;28;20054;-78
2024/02/01 01:16:32;;;;;;;7.72;3.70;;;;;;;-141.50;100.00;63355.56;5091110;28;20048;-79
2024/02/01 01:18:59;;;;;;;7.80;3.70;;;;;;;-141.50;100.00;63355.56;5109780;28;20059;-80
2024/02/01 01:21:27;;;;;;;7.55;3.50;;;;;;;-141.50;100.00;63355.56;5090287;28;20126;-80
2024/02/01 01:23:54;;;;;;;7.70;3.00;;;;;;;-141.50;100.00;63355.56;5108387;28;20533;-80
2024/02/01 01:26:25;;;;;;;7.65;2.90;;;;;;;-141.50;100.00;63355.56;5111668;28;20628;-80
2024/02/01 01:28:53;;;;;;;7.55;2.97;;;;;;;-141.50;100.00;63355.56;5109137;28;20708;-79
2024/02/01 01:31:23;;;;;;;9.40;3.28;;;;;;;-141.50;100.00;63355.56;5089900;28;20054;-79
2024/02/01 01:33:50;;;;;;;5.70;2.78;;;;;;;-141.50;100.00;63355.56;5108667;28;20058;-78
2024/02/01 01:36:16;;;;;;;7.90;2.75;;;;;;;-141.50;100.00;63355.56;5109367;28;20047;-79
2024/02/01 01:38:43;;;;;;;8.45;3.30;;;;;;;-141.50;100.00;63355.56;5092264;28;20100;-79
2024/02/01 01:41:10;;;;;;;5.82;3.08;;;;;;;-141.50;100.00;63355.56;5108100;28;20067;-79
2024/02/01 01:43:37;;;;;;;6.35;2.78;;;;;;;-141.50;100.00;63355.56;5108258;28;20046;-79
2024/02/01 01:46:04;;;;;;;6.13;3.03;;;;;;;-141.50;100.00;63355.56;5091127;28;20058;-79
2024/02/01 01:48:33;;;;;;;7.35;3.20;;;;;;;-141.50;100.00;63355.56;5108149;28;20047;-79
2024/02/01 01:51:01;;;;;;;5.85;3.00;;;;;;;-141.50;100.00;63355.56;5095762;28;20055;-78
2024/02/01 01:53:30;;;;;;;6.00;3.40;;;;;;;-141.50;100.00;63355.56;5111663;28;20043;-80
2024/02/01 01:55:57;;;;;;;5.35;2.95;;;;;;;-141.50;100.00;63355.56;5118847;28;20074;-79
2024/02/01 01:58:27;;;;;;;5.38;2.85;;;;;;;-141.50;100.00;63355.56;5120859;28;20105;-78
2024/02/01 02:00:57;;;;;;;5.63;2.63;;;;;;;-141.50;100.00;63355.56;5115809;28;20059;-79
2024/02/01 02:03:27;;;;;;;6.40;3.15;;;;;;;-141.50;100.00;63355.56;5077893;28;20503;-79
2024/02/01 02:05:57;;;;;;;6.97;3.08;;;;;;;-141.50;100.00;63355.56;5090381;28;20055;-78
2024/02/01 02:08:24;;;;;;;6.57;2.63;;;;;;;-141.50;100.00;63355.56;5089199;28;20077;-78
2024/02/01 02:10:52;;;;;;;7.32;3.22;;;;;;;-141.50;100.00;63355.56;5108434;28;20138;-78
2024/02/01 02:13:19;;;;;;;5.60;2.80;;;;;;;-141.50;100.00;63355.56;5081826;28;20638;-81
2024/02/01 02:15:46;;;;;;;4.95;2.58;;;;;;;-141.50;100.00;63355.56;5091414;28;20052;-81
2024/02/01 02:18:13;;;;;;;7.28;3.17;;;;;;;-141.50;100.00;63355.56;5113212;27;20051;-79
2024/02/01 02:20:44;;;;;;;6.32;3.25;;;;;;;-141.50;100.00;63355.56;5089466;28;20063;-80
2024/02/01 02:23:11;;;;;;;5.35;2.90;;;;;;;-141.50;100.00;63355.56;5110624;28;20058;-79
2024/02/01 02:25:39;;;;;;;6.20;3.22;;;;;;;-141.50;100.00;63355.56;5095739;28;20059;-77
2024/02/01 02:28:06;;;;;;;3.80;2.47;;;;;;;-141.50;100.00;63355.56;5093576;28;20060;-81
2024/02/01 02:30:33;;;;;;;4.30;2.70;;;;;;;-141.50;100.00;63355.56;5110614;28;20434;-78
2024/02/01 02:33:01;;;;;;;6.72;2.78;;;;;;;-141.50;100.00;63355.56;5083333;28;20192;-79
2024/02/01 02:35:28;;;;;;;7.95;2.63;;;;;;;-141.50;100.00;63355.56;5107319;28;20067;-80
2024/02/01 02:37:58;;;;;;;8.15;2.72;;;;;;;-141.50;100.00;63355.56;5092649;28;20548;-80
2024/02/01 02:40:25;;;;;;;6.07;2.67;;;;;;;-141.50;100.00;63355.56;5111159;28;20150;-79
2024/02/01 02:42:51;;;;;;;5.57;2.75;;;;;;;-141.50;100.00;63355.56;5110081;28;20105;-79
2024/02/01 02:45:19;;;;;;;7.82;2.65;;;;;;;-141.50;100.00;63355.56;5087480;28;20040;-79
2024/02/01 02:47:46;;;;;;;6.43;2.88;;;;;;;-141.50;100.00;63355.56;5110932;28;20050;-80
2024/02/01 02:50:14;;;;;;;4.38;2.35;;;;;;;-141.50;100.00;63355.56;5110735;28;20539;-79
2024/02/01 02:52:43;;;;;;;7.90;2.60;;;;;;;-141.50;100.00;63355.56;5088616;28;20567;-80
2024/02/01 02:55:10;;;;;;;6.40;2.50;;;;;;;-141.50;100.00;63355.56;5098293;28;20583;-78
2024/02/01 02:57:37;;;;;;;5.75;2.38;;;;;;;-141.50;100.00;63355.56;5077042;28;20126;-78
2024/02/01 03:00:05;;;;;;;5.50;2.47;;;;;;;-141.50;100.00;63355.56;5110223;28;20081;-78
2024/02/01 03:02:33;;;;;;;5.45;2.42;;;;;;;-141.50;100.00;63355.56;5109362;28;20048;-77
2024/02/01 03:05:01;;;;;;;5.95;2.78;;;;;;;-141.50;100.00;63355.56;5090131;28;20067;-79
2024/02/01 03:07:28;;;;;;;6.22;2.90;;;;;;;-141.50;100.00;63355.56;5092118;28;20040;-77
2024/02/01 03:09:55;;;;;;;4.88;2.33;;;;;;;-141.50;100.00;63355.56;5110974;28;20064;-78
2024/02/01 03:12:22;;;;;;;7.70;2.70;;;;;;;-141.50;100.00;63355.56;5090448;28;20056;-81
2024/02/01 03:14:49;;;;;;;5.65;2.45;;;;;;;-141.50;100.00;63355.56;5101950;28;20050;-79
2024/02/01 03:17:18;;;;;;;4.70;2.50;;;;;;;-141.50;100.00;63355.56;5091015;28;20075;-80
2024/02/01 03:19:49;;;;;;;4.35;2.38;;;;;;;-141.50;100.00;63355.56;5092277;28;20429;-80
2024/02/01 03:22:20;;;;;;;5.80;2.40;;;;;;;-141.50;100.00;63355.56;5081199;28;20686;-80
2024/02/01 03:24:58;;;;;;;4.22;2.28;;;;;;;-141.50;100.00;63355.56;5110985;28;20048;-80
2024/02/01 03:27:25;;;;;;;4.72;2.25;;;;;;;-141.50;100.00;63355.56;5087421;28;20118;-78
2024/02/01 03:29:52;;;;;;;4.28;2.22;;;;;;;-141.50;100.00;63355.56;5110593;28;20046;-79
2024/02/01 03:32:19;;;;;;;3.42;1.95;;;;;;;-141.50;100.00;63355.56;5087126;28;20063;-79
2024/02/01 03:34:46;;;;;;;3.58;2.10;;;;;;;-141.50;100.00;63355.56;5087149;28;20105;-79
2024/02/01 03:37:14;;;;;;;3.28;1.80;;;;;;;-141.50;100.00;63355.56;5108413;27;20615;-79
2024/02/01 03:39:42;;;;;;;3.75;2.15;;;;;;;-141.50;100.00;63355.56;5109839;28;20055;-79
2024/02/01 03:42:09;;;;;;;5.97;2.13;;;;;;;-141.50;100.00;63355.56;5109693;28;20075;-79
2024/02/01 03:44:39;;;;;;;4.80;2.25;;;;;;;-141.50;100.00;63355.56;5075310;28;20043;-79
2024/02/01 03:47:09;;;;;;;4.65;2.10;;;;;;;-141.50;100.00;63355.56;5108537;28;20468;-80
2024/02/01 03:49:39;;;;;;;4.38;2.25;;;;;;;-141.50;100.00;63355.56;5091589;28;20059;-80
2024/02/01 03:52:09;;;;;;;3.50;2.20;;;;;;;-141.50;100.00;63355.56;5113626;28;20051;-78
2024/02/01 03:54:38;;;;;;;6.93;2.80;;;;;;;-141.50;100.00;63355.56;5098101;28;20096;-78
2024/02/01 03:57:05;;;;;;;7.90;2.80;;;;;;;-141.50;100.00;63355.56;5110588;28;20085;-78
2024/02/01 03:59:32;;;;;;;4.88;2.88;;;;;;;-141.50;100.00;63355.56;5107388;28;20108;-79
2024/02/01 04:02:03;;;;;;;6.50;2.60;;;;;;;-141.50;100.00;63355.56;5109871;28;20142;-79
2024/02/01 04:04:31;;;;;;;6.72;2.72;;;;;;;-141.50;100.00;63355.56;5109944;28;20043;-79
2024/02/01 04:06:58;;;;;;;5.07;2.75;;;;;;;-141.50;100.00;63355.56;5110653;28;20533;-79
2024/02/01 04:09:27;;;;;;;4.80;2.75;;;;;;;-141.50;100.00;63355.56;5111609;28;26784;-78
2024/02/01 04:11:54;;;;;;;9.30;2.88;;;;;;;-141.50;100.00;63355.56;5111543;28;20566;-79
2024/02/01 04:14:22;;;;;;;10.65;3.00;;;;;;;-141.50;100.00;63355.56;5095319;28;20234;-79
2024/02/01 04:16:48;;;;;;;8.63;3.15;;;;;;;-141.50;100.00;63355.56;5108630;28;20047;-79
2024/02/01 04:19:15;;;;;;;7.30;2.83;;;;;;;-141.50;100.00;63355.56;5108942;28;20069;-79
2024/02/01 04:21:46;;;;;;;8.13;3.22;;;;;;;-141.50;100.00;63355.56;5105261;28;20031;-78
2024/02/01 04:24:13;;;;;;;5.85;3.13;;;;;;;-141.50;100.00;63355.56;5108794;28;20051;-79
2024/02/01 04:26:40;;;;;;;5.30;2.83;;;;;;;-141.50;100.00;63355.56;5111306;28;20052;-81
2024/02/01 04:29:09;;;;;;;7.32;2.92;;;;;;;-141.50;100.00;63355.56;5109234;28;20064;-79
2024/02/01 04:31:37;;;;;;;7.18;2.65;;;;;;;-141.50;100.00;63355.56;5110479;28;20044;-80
2024/02/01 04:34:04;;;;;;;5.97;2.80;;;;;;;-141.50;100.00;63355.56;5092809;28;20519;-78
2024/02/01 04:36:31;;;;;;;7.88;2.70;;;;;;;-141.50;100.00;63355.56;5090485;28;20673;-80
2024/02/01 04:38:58;;;;;;;5.60;2.47;;;;;;;-141.50;100.00;63355.56;5090702;28;20070;-80
2024/02/01 04:41:26;;;;;;;7.70;3.05;;;;;;;-141.50;100.00;63355.56;5092680;28;20142;-80
2024/02/01 04:43:55;;;;;;;8.30;3.53;;;;;;;-141.50;100.00;63355.56;5089426;28;20064;-79
2024/02/01 04:46:24;;;;;;;5.47;2.90;;;;;;;-141.50;100.00;63355.56;5089081;28;20051;-79
2024/02/01 04:48:51;;;;;;;4.55;2.90;;;;;;;-141.50;100.00;63355.56;5093553;28;20216;-80
2024/02/01 04:51:18;;;;;;;6.78;3.17;;;;;;;-141.50;100.00;63355.56;5116805;28;20497;-79
2024/02/01 04:53:45;;;;;;;7.03;2.97;;;;;;;-141.50;100.00;63355.56;5075267;28;20067;-80
2024/02/01 04:56:12;;;;;;;8.48;3.13;;;;;;;-141.50;100.00;63355.56;5091572;28;20135;-78
2024/02/01 04:58:41;;;;;;;9.15;3.00;;;;;;;-141.50;100.00;63355.56;5110899;28;20065;-79
2024/02/01 05:01:09;;;;;;;5.47;3.03;;;;;;;-141.50;100.00;63355.56;5112016;28;20532;-79
2024/02/01 05:03:37;;;;;;;7.22;3.20;;;;;;;-141.50;100.00;63355.56;5109120;28;20096;-79
2024/02/01 05:06:07;;;;;;;8.70;3.22;;;;;;;-141.50;100.00;63355.56;5109784;28;20055;-79
2024/02/01 05:08:35;;;;;;;7.28;3.30;;;;;;;-141.50;100.00;63355.56;5082705;28;20525;-79
2024/02/01 05:11:02;;;;;;;6.65;3.42;;;;;;;-141.50;100.00;63355.56;5110122;28;20079;-79
2024/02/01 05:13:30;;;;;;;9.75;3.53;;;;;;;-141.50;100.00;63355.56;5112260;28;20047;-79
2024/02/01 05:15:58;;;;;;;9.10;3.67;;;;;;;-141.50;100.00;63355.56;5094167;28;20093;-78
2024/02/01 05:18:26;;;;;;;9.07;3.50;;;;;;;-141.50;100.00;63355.56;5089445;28;20054;-78
2024/02/01 05:20:53;;;;;;;8.15;3.75;;;;;;;-141.50;100.00;63355.56;5110257;28;20058;-79
2024/02/01 05:23:20;;;;;;;9.63;3.55;;;;;;;-141.50;100.00;63355.56;5111208;28;20043;-78
2024/02/01 05:25:47;;;;;;;6.85;3.45;;;;;;;-141.50;100.00;63355.56;5107989;28;20097;-77
2024/02/01 05:28:13;;;;;;;11.18;4.10;;;;;;;-141.50;100.00;63355.56;5111524;28;20505;-78
2024/02/01 05:30:44;;;;;;;8.05;3.72;;;;;;;-141.50;100.00;63355.56;5091924;28;20047;-79
2024/02/01 05:33:11;;;;;;;6.60;3.92;;;;;;;-141.50;100.00;63355.56;5107298;28;20043;-79
2024/02/01 05:35:38;;;;;;;8.73;4.32;;;;;;;-141.50;100.00;63355.56;5095203;28;20048;-79
2024/02/01 05:38:08;;;;;;;10.13;4.22;;;;;;;-141.50;100.00;63355.56;5112130;28;20050;-79
2024/02/01 05:40:37;;;;;;;10.90;3.92;;;;;;;-141.50;100.00;63355.56;5096197;28;20040;-81
2024/02/01 05:43:04;;;;;;;11.40;4.68;;;;;;;-141.50;100.00;63355.56;5091616;28;20051;-78
2024/02/01 05:45:33;;;;;;;8.75;4.28;;;;;;;-141.50;100.00;63355.56;5113095;28;20088;-80
2024/02/01 05:48:00;;;;;;;12.52;4.68;;;;;;;-141.50;100.00;63355.56;5113762;28;20104;-79
2024/02/01 05:50:27;;;;;;;11.27;4.82;;;;;;;-141.50;100.00;63355.56;5118203;28;20040;-80
2024/02/01 05:52:55;;;;;;;10.10;4.72;;;;;;;-141.50;100.00;63355.56;5098764;28;20047;-79
2024/02/01 05:55:22;;;;;;;10.20;5.05;;;;;;;-141.50;100.00;63355.56;5117967;28;20052;-78
2024/02/01 05:57:49;;;;;;;10.93;4.85;;;;;;;-141.50;100.00;63355.56;5103033;28;20581;-80
2024/02/01 06:00:21;;;;;;;9.00;4.88;;;;;;;-141.50;100.00;63355.56;5118460;28;20055;-80
2024/02/01 06:02:50;;;;;;;10.83;4.70;;;;;;;-141.50;100.00;63355.56;5117712;28;20173;-79
2024/02/01 06:05:19;;;;;;;10.27;4.72;;;;;;;-141.50;100.00;63355.56;5120178;28;20060;-78
2024/02/01 06:07:46;;;;;;;9.52;4.65;;;;;;;-141.50;100.00;63355.56;5099335;28;20074;-76
2024/02/01 06:10:13;;;;;;;8.70;4.07;;;;;;;-141.50;100.00;63355.56;5099108;28;20051;-80
2024/02/01 06:12:40;;;;;;;8.70;4.32;;;;;;;-141.50;100.00;63355.56;5119044;28;20291;-79
2024/02/01 06:15:07;;;;;;;7.22;4.00;;;;;;;-141.50;100.00;63355.56;5096432;28;20043;-80
2024/02/01 06:17:34;;;;;;;8.38;3.97;;;;;;;-141.50;100.00;63355.56;5112877;28;20040;-80
2024/02/01 06:20:02;;;;;;;9.63;4.03;;;;;;;-141.50;100.00;63355.56;5094341;28;20100;-79
2024/02/01 06:22:30;;;;;;;9.00;4.15;;;;;;;-141.50;100.00;63355.56;5112831;28;20044;-80
2024/02/01 06:24:57;;;;;;;9.07;3.97;;;;;;;-141.50;100.00;63355.56;5110431;28;20111;-78
2024/02/01 06:27:24;;;;;;;13.68;5.07;;;;;;;-141.50;100.00;63355.56;5096487;28;20237;-80
2024/02/01 06:29:51;;;;;;;9.23;4.85;;;;;;;-141.50;100.00;63355.56;5113634;28;20047;-80
2024/02/01 06:32:21;;;;;;;11.25;5.20;;;;;;;-141.50;100.00;63355.56;5109986;28;20470;-80
2024/02/01 06:34:57;;;;;;;11.80;5.07;;;;;;;-141.50;100.00;63355.56;5093685;28;20039;-79
2024/02/01 06:37:29;;;;;;;10.20;4.93;;;;;;;-141.50;100.00;63355.56;5078307;28;20056;-79
2024/02/01 06:43:09;;;;;;;9.27;4.50;;;;;;;-141.50;100.00;63355.56;5068504;28;20139;-80
2024/02/01 06:46:00;;;;;;;12.93;5.07;;;;;;;-141.50;100.00;63355.56;5111580;28;20044;-79
2024/02/01 06:48:41;;;;;;;7.88;3.78;;;;;;;-141.50;100.00;63355.56;5076505;28;20047;-79
2024/02/01 06:51:21;;;;;;;8.73;3.60;;;;;;;-141.50;100.00;63355.56;5109189;28;20063;-79
2024/02/01 06:54:05;;;;;;;14.32;4.38;;;;;;;-141.50;100.00;63355.56;5087368;28;20048;-80
2024/02/01 06:56:48;;;;;;;9.52;3.63;;;;;;;-141.50;100.00;63355.56;5088002;28;20069;-80
2024/02/01 06:59:54;;;;;;;7.18;3.05;;;;;;;-141.50;100.00;63355.56;5107622;28;20051;-80
2024/02/01 07:02:47;;;;;;;4.72;2.85;;;;;;;-141.50;100.00;63355.56;5123342;28;20048;-79
2024/02/01 07:05:45;;;;;;;6.10;2.75;;;;;;;-141.50;100.00;63355.56;5113071;28;20501;-79
2024/02/01 07:08:13;;;;;;;4.80;2.72;;;;;;;-141.50;100.00;63355.56;5099206;28;20073;-78
2024/02/01 07:10:43;;;;;;;7.72;2.72;;;;;;;-141.50;100.00;63355.56;5101963;27;20063;-80
2024/02/01 07:13:45;;;;;;;8.02;3.15;;;;;;;-141.50;100.00;63355.56;5087367;28;20170;-80
2024/02/01 07:19:10;;;;;;;8.70;2.78;;;;;;;-141.50;100.00;63355.56;5113774;28;20058;-79
2024/02/01 07:22:02;;;;;;;4.07;2.45;;;;;;;-141.50;100.00;63355.56;5107223;28;20083;-80
2024/02/01 07:57:36;;;;;;;5.63;2.30;;;;;;;-141.50;100.00;63355.56;5064629;28;20252;-80
2024/02/01 08:00:04;;;;;;;3.88;2.35;;;;;;;-141.50;100.00;63355.56;5071685;28;20506;-80
2024/02/01 08:02:49;;;;;;;5.22;2.38;;;;;;;-141.50;100.00;63355.56;5069380;28;20129;-81
2024/02/01 08:08:04;;;;;;;3.95;1.85;;;;;;;-141.50;100.00;63355.56;5104703;28;20325;-80
2024/02/01 08:10:31;;;;;;;4.20;2.28;;;;;;;-141.50;100.00;63355.56;5088343;28;20117;-80
2024/02/01 08:13:07;;;;;;;4.30;2.00;;;;;;;-141.50;100.00;63355.56;5097947;28;20120;-80
2024/02/01 08:15:38;;;;;;;3.92;2.20;;;;;;;-141.50;100.00;63355.56;5060032;28;20151;-81
2024/02/01 08:18:11;;;;;;;3.78;2.00;;;;;;;-141.50;100.00;63355.56;5085394;28;20059;-80
2024/02/01 08:20:39;;;;;;;4.78;1.83;;;;;;;-141.50;100.00;63355.56;5079481;28;20064;-80
2024/02/01 08:23:08;;;;;;;3.80;2.20;;;;;;;-141.50;100.00;63355.56;5089235;28;20062;-79
2024/02/01 08:25:40;;;;;;;4.25;1.95;;;;;;;-141.50;100.00;63355.56;5087343;28;20387;-80
2024/02/01 08:28:10;;;;;;;4.35;2.10;;;;;;;-141.50;100.00;63355.56;5095617;28;20088;-80
2024/02/01 08:30:38;;;;;;;4.00;2.13;;;;;;;-141.50;100.00;63355.56;5103107;28;20079;-81
2024/02/01 08:33:04;;;;;;;6.00;2.30;;;;;;;-141.50;100.00;63355.56;5103491;28;20448;-80
2024/02/01 08:35:36;;;;;;;3.35;1.83;;;;;;;-141.50;100.00;63355.56;5085318;28;20059;-81
2024/02/01 08:38:04;;;;;;;5.68;2.58;;;;;;;-141.50;100.00;63355.56;5081836;28;20157;-80
2024/02/01 08:40:31;;;;;;;4.03;2.03;;;;;;;-141.50;100.00;63355.56;5103192;28;20144;-79
2024/02/01 08:42:58;;;;;;;4.32;2.35;;;;;;;-141.50;100.00;63355.56;5107623;28;20066;-80
2024/02/01 08:45:29;;;;;;;4.95;2.08;;;;;;;-141.50;100.00;63355.56;5109045;28;20059;-80
2024/02/01 08:48:02;;;;;;;3.75;2.10;;;;;;;-141.50;100.00;63355.56;5108553;28;20059;-81
2024/02/01 08:50:34;;;;;;;4.38;2.40;;;;;;;-141.50;100.00;63355.56;5086367;28;20514;-79
2024/02/01 08:53:01;;;;;;;4.18;2.50;;;;;;;-141.50;100.00;63355.56;5102802;28;20063;-81
2024/02/01 08:55:30;;;;;;;8.88;2.50;;;;;;;-141.50;100.00;63355.56;5085685;28;20440;-80
2024/02/01 08:58:08;;;;;;;3.85;2.22;;;;;;;-141.50;100.00;63355.56;5107583;28;20055;-79
2024/02/01 09:00:36;;;;;;;5.20;2.67;;;;;;;-141.50;100.00;63355.56;5104732;28;20097;-79
2024/02/01 09:03:05;;;;;;;4.28;2.47;;;;;;;-141.50;100.00;63355.56;5080502;28;20147;-79
2024/02/01 09:05:35;;;;;;;6.40;2.45;;;;;;;-141.50;100.00;63355.56;5101499;28;20048;-79
2024/02/01 09:08:05;;;;;;;9.82;2.65;;;;;;;-141.50;100.00;63355.56;5079365;28;20073;-81
2024/02/01 09:10:35;;;;;;;5.47;2.65;;;;;;;-141.50;100.00;63355.56;5106587;27;20055;-80
2024/02/01 09:13:02;;;;;;;5.82;2.53;;;;;;;-141.50;100.00;63355.56;5111005;28;20201;-80
2024/02/01 09:15:32;;;;;;;7.30;2.75;;;;;;;-141.50;100.00;63355.56;5111696;28;20043;-80
2024/02/01 09:17:59;;;;;;;5.55;2.60;;;;;;;-141.50;100.00;63355.56;5113638;28;20051;-80
2024/02/01 09:20:27;;;;;;;4.40;2.60;;;;;;;-141.50;100.00;63355.56;5113237;28;20066;-80
2024/02/01 09:22:55;;;;;;;5.72;2.65;;;;;;;-141.50;100.00;63355.56;5109841;28;20055;-78
2024/02/01 09:25:24;;;;;;;3.53;2.25;;;;;;;-141.50;100.00;63355.56;5087772;28;20066;-79
2024/02/01 09:27:53;;;;;;;5.03;3.03;;;;;;;-141.50;100.00;63355.56;5110377;28;20063;-79
2024/02/01 09:30:22;;;;;;;4.60;2.55;;;;;;;-141.50;100.00;63355.56;5084144;28;20056;-79
2024/02/01 09:32:51;;;;;;;4.25;2.58;;;;;;;-141.50;100.00;63355.56;5088008;28;20598;-80
2024/02/01 09:35:19;;;;;;;5.20;2.95;;;;;;;-141.50;100.00;63355.56;5094535;28;20103;-78
2024/02/01 09:37:51;;;;;;;5.30;3.00;;;;;;;-141.50;100.00;63355.56;5085338;28;20048;-79
2024/02/01 09:40:20;;;;;;;7.00;3.30;;;;;;;-141.50;100.00;63355.56;5080951;28;20051;-80
2024/02/01 09:42:49;;;;;;;7.40;3.08;;;;;;;-141.50;100.00;63355.56;5097205;28;20116;-79
2024/02/01 09:45:18;;;;;;;6.90;3.28;;;;;;;-141.50;100.00;63355.56;5101058;28;20055;-78
2024/02/01 09:47:48;;;;;;;6.68;3.53;;;;;;;-141.50;100.00;63355.56;5080418;28;20143;-79
2024/02/01 09:50:20;;;;;;;5.60;3.42;;;;;;;-141.50;100.00;63355.56;5058779;28;20059;-80
2024/02/01 09:52:51;;;;;;;3.53;2.15;;;;;;;-141.50;100.00;63355.56;5081869;28;20817;-78
2024/02/01 09:55:22;;;;;;;5.95;3.05;;;;;;;-141.50;100.00;63355.56;5080080;28;20051;-78
2024/02/01 09:57:52;;;;;;;6.90;3.15;;;;;;;-141.50;100.00;63355.56;5095446;28;20078;-79
2024/02/01 10:00:22;;;;;;;4.53;2.97;;;;;;;-141.50;100.00;63355.56;5096480;28;20548;-78
2024/02/01 10:02:56;;;;;;;4.57;2.80;;;;;;;-141.50;100.00;63355.56;5096250;28;20123;-81
2024/02/01 10:05:23;;;;;;;4.32;2.78;;;;;;;-141.50;100.00;63355.56;5074209;28;20063;-81
2024/02/01 10:07:54;;;;;;;5.25;3.30;;;;;;;-141.50;100.00;63355.56;5084360;28;20056;-80
2024/02/01 10:10:21;;;;;;;5.32;3.28;;;;;;;-141.50;100.00;63355.56;5104192;28;20055;-78
2024/02/01 10:12:51;;;;;;;5.15;2.85;;;;;;;-141.50;100.00;63355.56;5099674;28;20069;-81
2024/02/01 10:15:27;;;;;;;5.97;3.08;;;;;;;-141.50;100.00;63355.56;5082865;28;20056;-80
2024/02/01 10:17:53;;;;;;;7.43;2.95;;;;;;;-141.50;100.00;63355.56;5097282;28;20148;-80
2024/02/01 10:20:36;;;;;;;4.40;2.80;;;;;;;-141.50;100.00;63355.56;5099483;28;20552;-79
2024/02/01 10:23:04;;;;;;;4.22;2.40;;;;;;;-141.50;100.00;63355.56;5097165;28;20059;-81
2024/02/01 10:25:39;;;;;;;6.13;2.85;;;;;;;-141.50;100.00;63355.56;5102374;28;20105;-82
2024/02/01 10:28:08;;;;;;;5.65;3.05;;;;;;;-141.50;100.00;63355.56;5102570;28;20063;-81
2024/02/01 10:30:43;;;;;;;6.13;3.05;;;;;;;-141.50;100.00;63355.56;5066962;28;20052;-81
2024/02/01 10:33:11;;;;;;;8.43;2.75;;;;;;;-141.50;100.00;63355.56;5084134;28;20363;-79
2024/02/01 10:35:39;;;;;;;6.18;2.88;;;;;;;-141.50;100.00;63355.56;5076012;28;20225;-80
2024/02/01 10:38:13;;;;;;;4.30;2.45;;;;;;;-141.50;100.00;63355.56;5096330;28;20058;-79
2024/02/01 10:41:11;;;;;;;5.93;2.78;;;;;;;-141.50;100.00;63355.56;5077291;28;20059;-80
2024/02/01 10:43:48;;;;;;;4.85;2.60;;;;;;;-141.50;100.00;63355.56;5113627;27;20062;-79
2024/02/01 10:46:27;;;;;;;4.00;2.42;;;;;;;-141.50;100.00;63355.56;5106893;28;20837;-80
2024/02/01 10:49:18;;;;;;;4.47;2.50;;;;;;;-141.50;100.00;63355.56;5106511;28;20120;-77
2024/02/01 10:51:47;;;;;;;5.45;2.45;;;;;;;-141.50;100.00;63355.56;5110301;28;20063;-79
2024/02/01 10:54:15;;;;;;;4.50;2.40;;;;;;;-141.50;100.00;63355.56;5107096;28;20063;-78
2024/02/01 10:56:42;;;;;;;7.28;2.33;;;;;;;-141.50;100.00;63355.56;5104823;28;20078;-80
2024/02/01 10:59:10;;;;;;;2.58;2.03;;;;;;;-141.50;100.00;63355.56;5089078;28;20537;-80
2024/02/01 11:01:40;;;;;;;4.07;2.03;;;;;;;-141.50;100.00;63355.56;5093529;28;20043;-80
2024/02/01 11:04:09;;;;;;;5.07;2.70;;;;;;;-141.50;100.00;63355.56;5111124;28;20059;-79
2024/02/01 11:06:46;;;;;;;5.22;2.83;;;;;;;-141.50;100.00;63355.56;5084473;28;20501;-80
2024/02/01 11:09:20;;;;;;;6.93;3.17;;;;;;;-141.50;100.00;63355.56;5099208;28;20060;-78
2024/02/01 11:11:52;;;;;;;5.38;2.42;;;;;;;-141.50;100.00;63355.56;5068113;28;20114;-80
2024/02/01 11:14:32;;;;;;;4.20;2.55;;;;;;;-141.50;100.00;63355.56;5071699;28;20081;-80
2024/02/01 11:17:02;;;;;;;4.57;2.80;;;;;;;-141.50;100.00;63355.56;5092702;28;20079;-79
2024/02/01 11:19:34;;;;;;;4.57;2.92;;;;;;;-141.50;100.00;63355.56;5119705;28;20062;-80
2024/02/01 11:22:07;;;;;;;4.35;2.60;;;;;;;-141.50;100.00;63355.56;5092116;28;20146;-80
2024/02/01 11:24:37;;;;;;;5.18;2.78;;;;;;;-141.50;100.00;63355.56;5103793;28;20047;-80
2024/02/01 11:27:27;;;;;;;4.30;2.70;;;;;;;-141.50;100.00;63355.56;5088773;28;20067;-80
2024/02/01 11:29:55;;;;;;;7.85;3.13;;;;;;;-141.50;100.00;63355.56;5097115;28;20071;-79
2024/02/01 11:32:32;;;;;;;5.25;3.00;;;;;;;-141.50;100.00;63355.56;5078531;28;20044;-81
2024/02/01 11:34:59;;;;;;;5.70;3.30;;;;;;;-141.50;100.00;63355.56;5099898;28;20795;-80
2024/02/01 11:37:26;;;;;;;4.03;2.40;;;;;;;-141.50;100.00;63355.56;5108116;28;20047;-80
2024/02/01 11:39:55;;;;;;;5.85;2.80;;;;;;;-141.50;100.00;63355.56;5088003;28;20043;-81
2024/02/01 11:42:24;;;;;;;7.00;2.55;;;;;;;-141.50;100.00;63355.56;5101192;28;20068;-79
2024/02/01 11:45:03;;;;;;;7.18;2.72;;;;;;;-141.50;100.00;63355.56;5081196;28;20092;-79
2024/02/01 11:47:33;;;;;;;5.15;2.63;;;;;;;-141.50;100.00;63355.56;5100626;28;20445;-78
2024/02/01 11:50:01;;;;;;;4.47;2.40;;;;;;;-141.50;100.00;63355.56;5081273;28;20052;-79
2024/02/01 11:52:36;;;;;;;6.40;2.55;;;;;;;-141.50;100.00;63355.56;5115116;28;20046;-79
2024/02/01 11:55:06;;;;;;;4.93;2.10;;;;;;;-141.50;100.00;63355.56;5099363;28;20072;-81
2024/02/01 11:57:33;;;;;;;7.50;2.15;;;;;;;-141.50;100.00;63355.56;5108277;28;20892;-81
2024/02/01 12:00:12;;;;;;;2.90;1.80;;;;;;;-141.50;100.00;63355.56;5083985;28;20052;-82
2024/02/01 12:02:40;;;;;;;3.95;2.13;;;;;;;-141.50;100.00;63355.56;5106224;28;20067;-81